sensor_id;sensor_type;location;lat;lon;timestamp;P1;durP1;ratioP1;P2;durP2;ratioP2
3613;SDS011;1821;50.936;6.854;2023-10-19T00:00:29;14.30;;;12.90;;
3613;SDS011;1821;50.936;6.854;2023-10-19T00:01:15;13.57;;;12.27;;
3613;SDS011;1821;50.936;6.854;2023-10-19T00:01:58;13.73;;;12.30;;
3613;SDS011;1821;50.936;6.854;2023-10-19T00:02:40;15.63;;;12.98;;
3613;SDS011;1821;50.936;6.854;2023-10-19T00:03:23;14.63;;;13.05;;
3613;SDS011;1821;50.936;6.854;2023-10-19T00:04:05;13.75;;;12.25;;
3613;SDS011;1821;50.936;6.854;2023-10-19T00:04:48;14.40;;;12.90;;
3613;SDS011;1821;50.936;6.854;2023-10-19T00:05:30;14.75;;;12.93;;
3613;SDS011;1821;50.936;6.854;2023-10-19T00:06:16;14.30;;;12.80;;
3613;SDS011;1821;50.936;6.854;2023-10-19T00:07:02;14.30;;;12.80;;
3613;SDS011;1821;50.936;6.854;2023-10-19T00:07:45;14.63;;;13.13;;
3613;SDS011;1821;50.936;6.854;2023-10-19T00:08:27;15.10;;;13.60;;
3613;SDS011;1821;50.936;6.854;2023-10-19T00:09:17;15.75;;;13.73;;
3613;SDS011;1821;50.936;6.854;2023-10-19T00:10:04;15.25;;;13.45;;
3613;SDS011;1821;50.936;6.854;2023-10-19T00:10:48;15.85;;;13.05;;
3613;SDS011;1821;50.936;6.854;2023-10-19T00:11:44;13.95;;;12.50;;
3613;SDS011;1821;50.936;6.854;2023-10-19T00:12:27;15.40;;;13.20;;
3613;SDS011;1821;50.936;6.854;2023-10-19T00:13:10;17.90;;;13.05;;
3613;SDS011;1821;50.936;6.854;2023-10-19T00:13:55;16.83;;;13.20;;
3613;SDS011;1821;50.936;6.854;2023-10-19T00:14:39;16.10;;;14.00;;
3613;SDS011;1821;50.936;6.854;2023-10-19T00:15:21;14.73;;;13.23;;
3613;SDS011;1821;50.936;6.854;2023-10-19T00:16:09;15.73;;;12.45;;
3613;SDS011;1821;50.936;6.854;2023-10-19T00:17:04;14.70;;;13.10;;
3613;SDS011;1821;50.936;6.854;2023-10-19T00:17:47;16.15;;;14.05;;
3613;SDS011;1821;50.936;6.854;2023-10-19T00:18:34;14.82;;;13.32;;
3613;SDS011;1821;50.936;6.854;2023-10-19T00:19:16;15.95;;;14.25;;
3613;SDS011;1821;50.936;6.854;2023-10-19T00:20:01;17.20;;;14.38;;
3613;SDS011;1821;50.936;6.854;2023-10-19T00:21:05;15.38;;;13.10;;
3613;SDS011;1821;50.936;6.854;2023-10-19T00:22:07;14.65;;;13.10;;
3613;SDS011;1821;50.936;6.854;2023-10-19T00:22:57;15.27;;;13.30;;
3613;SDS011;1821;50.936;6.854;2023-10-19T00:23:39;14.60;;;13.10;;
3613;SDS011;1821;50.936;6.854;2023-10-19T00:24:21;14.82;;;13.10;;
3613;SDS011;1821;50.936;6.854;2023-10-19T00:25:04;15.50;;;13.80;;
3613;SDS011;1821;50.936;6.854;2023-10-19T00:25:48;15.10;;;13.50;;
3613;SDS011;1821;50.936;6.854;2023-10-19T00:26:32;15.65;;;14.05;;
3613;SDS011;1821;50.936;6.854;2023-10-19T00:27:14;15.25;;;13.65;;
3613;SDS011;1821;50.936;6.854;2023-10-19T00:28:00;14.95;;;13.43;;
3613;SDS011;1821;50.936;6.854;2023-10-19T00:28:46;18.35;;;14.07;;
3613;SDS011;1821;50.936;6.854;2023-10-19T00:29:34;15.82;;;14.07;;
3613;SDS011;1821;50.936;6.854;2023-10-19T00:30:21;15.57;;;13.85;;
3613;SDS011;1821;50.936;6.854;2023-10-19T00:31:05;14.95;;;13.35;;
3613;SDS011;1821;50.936;6.854;2023-10-19T00:31:50;14.88;;;13.10;;
3613;SDS011;1821;50.936;6.854;2023-10-19T00:32:32;14.52;;;13.02;;
3613;SDS011;1821;50.936;6.854;2023-10-19T00:33:20;14.35;;;12.85;;
3613;SDS011;1821;50.936;6.854;2023-10-19T00:34:03;14.20;;;12.73;;
3613;SDS011;1821;50.936;6.854;2023-10-19T00:34:45;13.60;;;12.18;;
3613;SDS011;1821;50.936;6.854;2023-10-19T00:35:33;14.27;;;12.57;;
3613;SDS011;1821;50.936;6.854;2023-10-19T00:36:15;14.30;;;12.80;;
3613;SDS011;1821;50.936;6.854;2023-10-19T00:36:57;15.85;;;13.50;;
3613;SDS011;1821;50.936;6.854;2023-10-19T00:37:48;14.68;;;13.18;;
3613;SDS011;1821;50.936;6.854;2023-10-19T00:38:30;14.70;;;13.30;;
3613;SDS011;1821;50.936;6.854;2023-10-19T00:39:12;14.73;;;13.23;;
3613;SDS011;1821;50.936;6.854;2023-10-19T00:39:58;15.18;;;13.57;;
3613;SDS011;1821;50.936;6.854;2023-10-19T00:40:56;16.90;;;14.02;;
3613;SDS011;1821;50.936;6.854;2023-10-19T00:41:54;15.65;;;13.63;;
3613;SDS011;1821;50.936;6.854;2023-10-19T00:42:38;15.40;;;13.80;;
3613;SDS011;1821;50.936;6.854;2023-10-19T00:43:27;16.95;;;15.15;;
3613;SDS011;1821;50.936;6.854;2023-10-19T00:44:18;16.30;;;14.60;;
3613;SDS011;1821;50.936;6.854;2023-10-19T00:45:05;17.00;;;13.65;;
3613;SDS011;1821;50.936;6.854;2023-10-19T00:45:48;15.82;;;13.43;;
3613;SDS011;1821;50.936;6.854;2023-10-19T00:46:33;14.63;;;13.13;;
3613;SDS011;1821;50.936;6.854;2023-10-19T00:47:25;15.38;;;13.82;;
3613;SDS011;1821;50.936;6.854;2023-10-19T00:48:11;15.38;;;13.70;;
3613;SDS011;1821;50.936;6.854;2023-10-19T00:48:54;16.08;;;14.05;;
3613;SDS011;1821;50.936;6.854;2023-10-19T00:49:39;16.30;;;13.15;;
3613;SDS011;1821;50.936;6.854;2023-10-19T00:50:28;16.30;;;13.63;;
3613;SDS011;1821;50.936;6.854;2023-10-19T00:51:13;15.27;;;13.32;;
3613;SDS011;1821;50.936;6.854;2023-10-19T00:52:07;18.33;;;15.13;;
3613;SDS011;1821;50.936;6.854;2023-10-19T00:52:53;15.60;;;14.10;;
3613;SDS011;1821;50.936;6.854;2023-10-19T00:53:38;15.93;;;14.23;;
3613;SDS011;1821;50.936;6.854;2023-10-19T00:54:27;15.82;;;14.15;;
3613;SDS011;1821;50.936;6.854;2023-10-19T00:55:17;19.35;;;13.95;;
3613;SDS011;1821;50.936;6.854;2023-10-19T00:56:08;16.08;;;14.38;;
3613;SDS011;1821;50.936;6.854;2023-10-19T00:56:51;15.65;;;14.00;;
3613;SDS011;1821;50.936;6.854;2023-10-19T00:57:37;16.00;;;14.27;;
3613;SDS011;1821;50.936;6.854;2023-10-19T00:58:22;15.40;;;13.80;;
3613;SDS011;1821;50.936;6.854;2023-10-19T00:59:11;16.00;;;14.27;;
3613;SDS011;1821;50.936;6.854;2023-10-19T00:59:55;16.60;;;14.25;;
3613;SDS011;1821;50.936;6.854;2023-10-19T01:00:52;15.90;;;13.63;;
3613;SDS011;1821;50.936;6.854;2023-10-19T01:01:36;15.45;;;13.80;;
3613;SDS011;1821;50.936;6.854;2023-10-19T01:02:25;16.40;;;14.70;;
3613;SDS011;1821;50.936;6.854;2023-10-19T01:03:07;16.50;;;14.70;;
3613;SDS011;1821;50.936;6.854;2023-10-19T01:03:54;17.35;;;13.70;;
3613;SDS011;1821;50.936;6.854;2023-10-19T01:04:40;15.80;;;14.10;;
3613;SDS011;1821;50.936;6.854;2023-10-19T01:05:24;15.75;;;14.15;;
3613;SDS011;1821;50.936;6.854;2023-10-19T01:06:06;16.52;;;14.10;;
3613;SDS011;1821;50.936;6.854;2023-10-19T01:06:51;17.33;;;14.70;;
3613;SDS011;1821;50.936;6.854;2023-10-19T01:07:46;16.52;;;14.40;;
3613;SDS011;1821;50.936;6.854;2023-10-19T01:08:27;16.30;;;14.60;;
3613;SDS011;1821;50.936;6.854;2023-10-19T01:09:15;15.07;;;13.57;;
3613;SDS011;1821;50.936;6.854;2023-10-19T01:10:02;16.40;;;14.70;;
3613;SDS011;1821;50.936;6.854;2023-10-19T01:10:48;16.13;;;14.43;;
3613;SDS011;1821;50.936;6.854;2023-10-19T01:11:33;16.67;;;14.80;;
3613;SDS011;1821;50.936;6.854;2023-10-19T01:12:21;16.27;;;14.38;;
3613;SDS011;1821;50.936;6.854;2023-10-19T01:13:06;17.70;;;14.55;;
3613;SDS011;1821;50.936;6.854;2023-10-19T01:13:48;16.15;;;14.45;;
3613;SDS011;1821;50.936;6.854;2023-10-19T01:14:31;15.80;;;14.20;;
3613;SDS011;1821;50.936;6.854;2023-10-19T01:15:14;16.08;;;14.40;;
3613;SDS011;1821;50.936;6.854;2023-10-19T01:15:58;15.68;;;14.13;;
3613;SDS011;1821;50.936;6.854;2023-10-19T01:16:40;18.85;;;15.25;;
3613;SDS011;1821;50.936;6.854;2023-10-19T01:17:22;18.38;;;15.15;;
3613;SDS011;1821;50.936;6.854;2023-10-19T01:18:06;18.77;;;14.88;;
3613;SDS011;1821;50.936;6.854;2023-10-19T01:18:52;17.10;;;14.32;;
3613;SDS011;1821;50.936;6.854;2023-10-19T01:19:36;17.65;;;15.13;;
3613;SDS011;1821;50.936;6.854;2023-10-19T01:20:23;16.77;;;14.98;;
3613;SDS011;1821;50.936;6.854;2023-10-19T01:21:12;16.45;;;14.70;;
3613;SDS011;1821;50.936;6.854;2023-10-19T01:21:54;17.35;;;15.55;;
3613;SDS011;1821;50.936;6.854;2023-10-19T01:23:00;17.08;;;15.38;;
3613;SDS011;1821;50.936;6.854;2023-10-19T01:23:50;19.23;;;17.15;;
3613;SDS011;1821;50.936;6.854;2023-10-19T01:24:32;18.67;;;15.85;;
3613;SDS011;1821;50.936;6.854;2023-10-19T01:25:43;19.05;;;14.98;;
3613;SDS011;1821;50.936;6.854;2023-10-19T01:26:38;16.20;;;14.50;;
3613;SDS011;1821;50.936;6.854;2023-10-19T01:27:20;15.90;;;14.30;;
3613;SDS011;1821;50.936;6.854;2023-10-19T01:28:06;17.08;;;15.38;;
3613;SDS011;1821;50.936;6.854;2023-10-19T01:28:50;18.15;;;15.63;;
3613;SDS011;1821;50.936;6.854;2023-10-19T01:29:35;17.10;;;15.30;;
3613;SDS011;1821;50.936;6.854;2023-10-19T01:30:18;16.35;;;14.65;;
3613;SDS011;1821;50.936;6.854;2023-10-19T01:31:01;16.33;;;14.73;;
3613;SDS011;1821;50.936;6.854;2023-10-19T01:31:47;16.20;;;14.60;;
3613;SDS011;1821;50.936;6.854;2023-10-19T01:32:40;15.02;;;13.43;;
3613;SDS011;1821;50.936;6.854;2023-10-19T01:33:23;17.52;;;14.30;;
3613;SDS011;1821;50.936;6.854;2023-10-19T01:34:05;16.85;;;15.05;;
3613;SDS011;1821;50.936;6.854;2023-10-19T01:34:49;16.25;;;14.55;;
3613;SDS011;1821;50.936;6.854;2023-10-19T01:35:32;15.80;;;14.20;;
3613;SDS011;1821;50.936;6.854;2023-10-19T01:36:33;15.10;;;13.60;;
3613;SDS011;1821;50.936;6.854;2023-10-19T01:37:23;16.77;;;13.77;;
3613;SDS011;1821;50.936;6.854;2023-10-19T01:38:05;15.63;;;14.02;;
3613;SDS011;1821;50.936;6.854;2023-10-19T01:38:49;16.70;;;14.70;;
3613;SDS011;1821;50.936;6.854;2023-10-19T01:39:36;17.73;;;14.40;;
3613;SDS011;1821;50.936;6.854;2023-10-19T01:40:20;16.10;;;14.43;;
3613;SDS011;1821;50.936;6.854;2023-10-19T01:41:03;15.48;;;13.95;;
3613;SDS011;1821;50.936;6.854;2023-10-19T01:41:57;15.38;;;13.77;;
3613;SDS011;1821;50.936;6.854;2023-10-19T01:42:39;16.33;;;14.63;;
3613;SDS011;1821;50.936;6.854;2023-10-19T01:43:21;15.88;;;14.27;;
3613;SDS011;1821;50.936;6.854;2023-10-19T01:44:03;15.60;;;13.85;;
3613;SDS011;1821;50.936;6.854;2023-10-19T01:44:46;16.42;;;14.60;;
3613;SDS011;1821;50.936;6.854;2023-10-19T01:45:29;18.38;;;15.15;;
3613;SDS011;1821;50.936;6.854;2023-10-19T01:46:11;18.20;;;15.75;;
3613;SDS011;1821;50.936;6.854;2023-10-19T01:46:54;17.23;;;15.38;;
3613;SDS011;1821;50.936;6.854;2023-10-19T01:47:37;17.15;;;15.35;;
3613;SDS011;1821;50.936;6.854;2023-10-19T01:48:21;15.98;;;14.38;;
3613;SDS011;1821;50.936;6.854;2023-10-19T01:49:09;16.88;;;15.18;;
3613;SDS011;1821;50.936;6.854;2023-10-19T01:49:51;15.60;;;13.95;;
3613;SDS011;1821;50.936;6.854;2023-10-19T01:50:33;17.23;;;15.18;;
3613;SDS011;1821;50.936;6.854;2023-10-19T01:51:21;18.48;;;15.55;;
3613;SDS011;1821;50.936;6.854;2023-10-19T01:52:04;18.02;;;14.80;;
3613;SDS011;1821;50.936;6.854;2023-10-19T01:52:47;19.50;;;14.25;;
3613;SDS011;1821;50.936;6.854;2023-10-19T01:53:29;15.95;;;13.90;;
3613;SDS011;1821;50.936;6.854;2023-10-19T01:54:14;15.82;;;14.32;;
3613;SDS011;1821;50.936;6.854;2023-10-19T01:54:57;15.30;;;13.80;;
3613;SDS011;1821;50.936;6.854;2023-10-19T01:55:50;14.95;;;13.45;;
3613;SDS011;1821;50.936;6.854;2023-10-19T01:56:39;15.07;;;13.20;;
3613;SDS011;1821;50.936;6.854;2023-10-19T01:57:23;14.88;;;13.35;;
3613;SDS011;1821;50.936;6.854;2023-10-19T01:58:07;14.77;;;13.27;;
3613;SDS011;1821;50.936;6.854;2023-10-19T01:58:49;15.10;;;13.32;;
3613;SDS011;1821;50.936;6.854;2023-10-19T01:59:42;16.13;;;13.20;;
3613;SDS011;1821;50.936;6.854;2023-10-19T02:00:25;15.38;;;12.70;;
3613;SDS011;1821;50.936;6.854;2023-10-19T02:01:07;15.05;;;13.25;;
3613;SDS011;1821;50.936;6.854;2023-10-19T02:01:53;15.25;;;13.65;;
3613;SDS011;1821;50.936;6.854;2023-10-19T02:02:36;15.10;;;13.50;;
3613;SDS011;1821;50.936;6.854;2023-10-19T02:03:18;15.15;;;13.55;;
3613;SDS011;1821;50.936;6.854;2023-10-19T02:04:05;14.45;;;13.05;;
3613;SDS011;1821;50.936;6.854;2023-10-19T02:04:50;13.90;;;12.50;;
3613;SDS011;1821;50.936;6.854;2023-10-19T02:05:34;13.63;;;11.80;;
3613;SDS011;1821;50.936;6.854;2023-10-19T02:06:22;14.52;;;13.02;;
3613;SDS011;1821;50.936;6.854;2023-10-19T02:07:08;14.60;;;13.10;;
3613;SDS011;1821;50.936;6.854;2023-10-19T02:07:59;13.90;;;12.50;;
3613;SDS011;1821;50.936;6.854;2023-10-19T02:08:41;13.95;;;12.45;;
3613;SDS011;1821;50.936;6.854;2023-10-19T02:09:25;14.30;;;12.80;;
3613;SDS011;1821;50.936;6.854;2023-10-19T02:10:10;14.65;;;13.15;;
3613;SDS011;1821;50.936;6.854;2023-10-19T02:10:52;14.70;;;13.20;;
3613;SDS011;1821;50.936;6.854;2023-10-19T02:11:34;13.82;;;12.43;;
3613;SDS011;1821;50.936;6.854;2023-10-19T02:12:22;14.38;;;12.90;;
3613;SDS011;1821;50.936;6.854;2023-10-19T02:13:04;13.90;;;12.40;;
3613;SDS011;1821;50.936;6.854;2023-10-19T02:13:51;13.73;;;12.23;;
3613;SDS011;1821;50.936;6.854;2023-10-19T02:14:35;14.48;;;12.45;;
3613;SDS011;1821;50.936;6.854;2023-10-19T02:15:20;18.13;;;12.25;;
3613;SDS011;1821;50.936;6.854;2023-10-19T02:16:03;14.77;;;12.48;;
3613;SDS011;1821;50.936;6.854;2023-10-19T02:16:46;15.45;;;13.18;;
3613;SDS011;1821;50.936;6.854;2023-10-19T02:17:34;14.68;;;13.18;;
3613;SDS011;1821;50.936;6.854;2023-10-19T02:18:16;14.05;;;12.40;;
3613;SDS011;1821;50.936;6.854;2023-10-19T02:18:58;15.07;;;12.65;;
3613;SDS011;1821;50.936;6.854;2023-10-19T02:19:42;14.77;;;13.27;;
3613;SDS011;1821;50.936;6.854;2023-10-19T02:20:25;15.98;;;12.43;;
3613;SDS011;1821;50.936;6.854;2023-10-19T02:21:21;14.80;;;12.52;;
3613;SDS011;1821;50.936;6.854;2023-10-19T02:22:03;14.43;;;12.50;;
3613;SDS011;1821;50.936;6.854;2023-10-19T02:22:49;13.88;;;12.38;;
3613;SDS011;1821;50.936;6.854;2023-10-19T02:23:33;14.30;;;12.57;;
3613;SDS011;1821;50.936;6.854;2023-10-19T02:24:15;14.05;;;12.55;;
3613;SDS011;1821;50.936;6.854;2023-10-19T02:24:57;14.65;;;13.25;;
3613;SDS011;1821;50.936;6.854;2023-10-19T02:25:39;13.40;;;12.10;;
3613;SDS011;1821;50.936;6.854;2023-10-19T02:26:22;14.50;;;12.40;;
3613;SDS011;1821;50.936;6.854;2023-10-19T02:27:07;16.25;;;12.45;;
3613;SDS011;1821;50.936;6.854;2023-10-19T02:28:10;16.30;;;14.60;;
3613;SDS011;1821;50.936;6.854;2023-10-19T02:28:53;14.40;;;12.90;;
3613;SDS011;1821;50.936;6.854;2023-10-19T02:29:37;13.43;;;12.02;;
3613;SDS011;1821;50.936;6.854;2023-10-19T02:30:19;13.32;;;12.00;;
3613;SDS011;1821;50.936;6.854;2023-10-19T02:31:01;14.15;;;12.65;;
3613;SDS011;1821;50.936;6.854;2023-10-19T02:31:56;13.20;;;11.90;;
3613;SDS011;1821;50.936;6.854;2023-10-19T02:32:44;14.20;;;12.70;;
3613;SDS011;1821;50.936;6.854;2023-10-19T02:33:28;15.95;;;13.90;;
3613;SDS011;1821;50.936;6.854;2023-10-19T02:34:11;15.45;;;13.05;;
3613;SDS011;1821;50.936;6.854;2023-10-19T02:34:59;15.43;;;13.40;;
3613;SDS011;1821;50.936;6.854;2023-10-19T02:35:43;15.02;;;12.75;;
3613;SDS011;1821;50.936;6.854;2023-10-19T02:36:28;13.98;;;12.48;;
3613;SDS011;1821;50.936;6.854;2023-10-19T02:37:12;14.30;;;12.70;;
3613;SDS011;1821;50.936;6.854;2023-10-19T02:37:53;13.80;;;12.30;;
3613;SDS011;1821;50.936;6.854;2023-10-19T02:38:35;14.70;;;13.20;;
3613;SDS011;1821;50.936;6.854;2023-10-19T02:39:17;16.77;;;14.07;;
3613;SDS011;1821;50.936;6.854;2023-10-19T02:39:59;19.95;;;14.35;;
3613;SDS011;1821;50.936;6.854;2023-10-19T02:40:41;17.42;;;12.75;;
3613;SDS011;1821;50.936;6.854;2023-10-19T02:41:24;16.00;;;13.40;;
3613;SDS011;1821;50.936;6.854;2023-10-19T02:42:08;16.75;;;13.77;;
3613;SDS011;1821;50.936;6.854;2023-10-19T02:42:50;15.77;;;13.90;;
3613;SDS011;1821;50.936;6.854;2023-10-19T02:43:32;16.30;;;13.50;;
3613;SDS011;1821;50.936;6.854;2023-10-19T02:44:15;14.68;;;13.07;;
3613;SDS011;1821;50.936;6.854;2023-10-19T02:45:01;15.63;;;13.95;;
3613;SDS011;1821;50.936;6.854;2023-10-19T02:45:46;17.45;;;13.77;;
3613;SDS011;1821;50.936;6.854;2023-10-19T02:46:29;15.95;;;13.93;;
3613;SDS011;1821;50.936;6.854;2023-10-19T02:47:13;15.23;;;13.63;;
3613;SDS011;1821;50.936;6.854;2023-10-19T02:47:55;14.82;;;13.23;;
3613;SDS011;1821;50.936;6.854;2023-10-19T02:48:37;15.93;;;14.23;;
3613;SDS011;1821;50.936;6.854;2023-10-19T02:49:20;15.52;;;13.82;;
3613;SDS011;1821;50.936;6.854;2023-10-19T02:50:03;16.70;;;14.40;;
3613;SDS011;1821;50.936;6.854;2023-10-19T02:50:51;15.98;;;14.23;;
3613;SDS011;1821;50.936;6.854;2023-10-19T02:51:33;16.42;;;14.77;;
3613;SDS011;1821;50.936;6.854;2023-10-19T02:52:15;16.58;;;14.77;;
3613;SDS011;1821;50.936;6.854;2023-10-19T02:52:57;16.65;;;14.43;;
3613;SDS011;1821;50.936;6.854;2023-10-19T02:53:39;14.93;;;13.48;;
3613;SDS011;1821;50.936;6.854;2023-10-19T02:54:22;16.35;;;13.70;;
3613;SDS011;1821;50.936;6.854;2023-10-19T02:55:06;17.70;;;13.90;;
3613;SDS011;1821;50.936;6.854;2023-10-19T02:55:49;15.02;;;13.40;;
3613;SDS011;1821;50.936;6.854;2023-10-19T02:56:33;14.68;;;13.18;;
3613;SDS011;1821;50.936;6.854;2023-10-19T02:57:19;14.60;;;12.80;;
3613;SDS011;1821;50.936;6.854;2023-10-19T02:58:02;15.73;;;13.20;;
3613;SDS011;1821;50.936;6.854;2023-10-19T02:58:46;17.30;;;15.32;;
3613;SDS011;1821;50.936;6.854;2023-10-19T02:59:31;17.42;;;13.77;;
3613;SDS011;1821;50.936;6.854;2023-10-19T03:00:14;17.90;;;14.30;;
3613;SDS011;1821;50.936;6.854;2023-10-19T03:00:56;17.10;;;14.82;;
3613;SDS011;1821;50.936;6.854;2023-10-19T03:01:39;15.70;;;14.00;;
3613;SDS011;1821;50.936;6.854;2023-10-19T03:02:25;14.70;;;13.10;;
3613;SDS011;1821;50.936;6.854;2023-10-19T03:03:07;15.55;;;13.90;;
3613;SDS011;1821;50.936;6.854;2023-10-19T03:03:53;15.38;;;13.73;;
3613;SDS011;1821;50.936;6.854;2023-10-19T03:04:36;16.30;;;13.05;;
3613;SDS011;1821;50.936;6.854;2023-10-19T03:05:19;16.42;;;13.90;;
3613;SDS011;1821;50.936;6.854;2023-10-19T03:06:01;15.77;;;13.48;;
3613;SDS011;1821;50.936;6.854;2023-10-19T03:06:47;14.95;;;13.45;;
3613;SDS011;1821;50.936;6.854;2023-10-19T03:07:30;14.80;;;13.15;;
3613;SDS011;1821;50.936;6.854;2023-10-19T03:08:12;14.43;;;12.93;;
3613;SDS011;1821;50.936;6.854;2023-10-19T03:08:57;17.70;;;13.73;;
3613;SDS011;1821;50.936;6.854;2023-10-19T03:09:42;16.73;;;13.93;;
3613;SDS011;1821;50.936;6.854;2023-10-19T03:10:32;15.02;;;13.52;;
3613;SDS011;1821;50.936;6.854;2023-10-19T03:11:24;14.50;;;13.00;;
3613;SDS011;1821;50.936;6.854;2023-10-19T03:12:06;17.20;;;13.80;;
3613;SDS011;1821;50.936;6.854;2023-10-19T03:12:52;14.27;;;12.70;;
3613;SDS011;1821;50.936;6.854;2023-10-19T03:13:34;14.80;;;12.73;;
3613;SDS011;1821;50.936;6.854;2023-10-19T03:14:16;14.70;;;13.18;;
3613;SDS011;1821;50.936;6.854;2023-10-19T03:14:59;14.35;;;12.82;;
3613;SDS011;1821;50.936;6.854;2023-10-19T03:15:41;15.20;;;12.65;;
3613;SDS011;1821;50.936;6.854;2023-10-19T03:16:24;17.08;;;13.43;;
3613;SDS011;1821;50.936;6.854;2023-10-19T03:17:11;14.02;;;12.52;;
3613;SDS011;1821;50.936;6.854;2023-10-19T03:17:54;14.00;;;12.70;;
3613;SDS011;1821;50.936;6.854;2023-10-19T03:18:36;14.20;;;12.80;;
3613;SDS011;1821;50.936;6.854;2023-10-19T03:19:17;15.00;;;13.18;;
3613;SDS011;1821;50.936;6.854;2023-10-19T03:20:04;16.17;;;13.13;;
3613;SDS011;1821;50.936;6.854;2023-10-19T03:20:47;14.27;;;12.75;;
3613;SDS011;1821;50.936;6.854;2023-10-19T03:21:32;14.93;;;13.43;;
3613;SDS011;1821;50.936;6.854;2023-10-19T03:22:22;14.43;;;12.93;;
3613;SDS011;1821;50.936;6.854;2023-10-19T03:23:04;15.95;;;13.10;;
3613;SDS011;1821;50.936;6.854;2023-10-19T03:23:47;15.40;;;13.80;;
3613;SDS011;1821;50.936;6.854;2023-10-19T03:24:31;14.13;;;12.70;;
3613;SDS011;1821;50.936;6.854;2023-10-19T03:25:17;15.43;;;12.82;;
3613;SDS011;1821;50.936;6.854;2023-10-19T03:26:38;15.40;;;13.38;;
3613;SDS011;1821;50.936;6.854;2023-10-19T03:27:24;14.23;;;12.73;;
3613;SDS011;1821;50.936;6.854;2023-10-19T03:28:06;16.25;;;13.70;;
3613;SDS011;1821;50.936;6.854;2023-10-19T03:28:52;16.05;;;13.48;;
3613;SDS011;1821;50.936;6.854;2023-10-19T03:29:37;14.38;;;12.88;;
3613;SDS011;1821;50.936;6.854;2023-10-19T03:30:27;14.50;;;13.00;;
3613;SDS011;1821;50.936;6.854;2023-10-19T03:31:09;14.70;;;13.25;;
3613;SDS011;1821;50.936;6.854;2023-10-19T03:31:59;15.45;;;13.85;;
3613;SDS011;1821;50.936;6.854;2023-10-19T03:32:43;16.00;;;14.30;;
3613;SDS011;1821;50.936;6.854;2023-10-19T03:33:25;17.33;;;14.98;;
3613;SDS011;1821;50.936;6.854;2023-10-19T03:34:10;17.63;;;15.75;;
3613;SDS011;1821;50.936;6.854;2023-10-19T03:34:54;18.35;;;15.75;;
3613;SDS011;1821;50.936;6.854;2023-10-19T03:35:38;17.90;;;16.00;;
3613;SDS011;1821;50.936;6.854;2023-10-19T03:36:23;17.83;;;15.93;;
3613;SDS011;1821;50.936;6.854;2023-10-19T03:37:05;17.95;;;15.68;;
3613;SDS011;1821;50.936;6.854;2023-10-19T03:37:50;17.10;;;15.30;;
3613;SDS011;1821;50.936;6.854;2023-10-19T03:38:33;16.20;;;14.40;;
3613;SDS011;1821;50.936;6.854;2023-10-19T03:39:16;17.77;;;14.80;;
3613;SDS011;1821;50.936;6.854;2023-10-19T03:39:59;17.00;;;15.10;;
3613;SDS011;1821;50.936;6.854;2023-10-19T03:40:48;18.15;;;15.40;;
3613;SDS011;1821;50.936;6.854;2023-10-19T03:41:33;17.40;;;15.50;;
3613;SDS011;1821;50.936;6.854;2023-10-19T03:42:17;18.38;;;15.85;;
3613;SDS011;1821;50.936;6.854;2023-10-19T03:42:59;18.92;;;16.15;;
3613;SDS011;1821;50.936;6.854;2023-10-19T03:43:49;19.15;;;16.00;;
3613;SDS011;1821;50.936;6.854;2023-10-19T03:44:34;18.10;;;14.98;;
3613;SDS011;1821;50.936;6.854;2023-10-19T03:45:31;17.38;;;15.57;;
3613;SDS011;1821;50.936;6.854;2023-10-19T03:46:20;17.75;;;15.95;;
3613;SDS011;1821;50.936;6.854;2023-10-19T03:47:19;15.70;;;14.10;;
3613;SDS011;1821;50.936;6.854;2023-10-19T03:48:02;16.90;;;15.20;;
3613;SDS011;1821;50.936;6.854;2023-10-19T03:48:50;17.67;;;15.27;;
3613;SDS011;1821;50.936;6.854;2023-10-19T03:49:32;19.20;;;16.00;;
3613;SDS011;1821;50.936;6.854;2023-10-19T03:50:18;18.17;;;16.30;;
3613;SDS011;1821;50.936;6.854;2023-10-19T03:51:03;18.17;;;16.20;;
3613;SDS011;1821;50.936;6.854;2023-10-19T03:51:46;19.35;;;16.05;;
3613;SDS011;1821;50.936;6.854;2023-10-19T03:52:43;17.50;;;15.60;;
3613;SDS011;1821;50.936;6.854;2023-10-19T03:53:28;16.92;;;15.10;;
3613;SDS011;1821;50.936;6.854;2023-10-19T03:54:11;16.80;;;15.00;;
3613;SDS011;1821;50.936;6.854;2023-10-19T03:55:06;16.60;;;14.90;;
3613;SDS011;1821;50.936;6.854;2023-10-19T03:56:03;17.70;;;15.00;;
3613;SDS011;1821;50.936;6.854;2023-10-19T03:56:52;17.58;;;14.60;;
3613;SDS011;1821;50.936;6.854;2023-10-19T03:57:34;16.65;;;14.50;;
3613;SDS011;1821;50.936;6.854;2023-10-19T03:58:16;16.00;;;14.30;;
3613;SDS011;1821;50.936;6.854;2023-10-19T03:59:01;16.38;;;14.68;;
3613;SDS011;1821;50.936;6.854;2023-10-19T03:59:46;15.30;;;13.70;;
3613;SDS011;1821;50.936;6.854;2023-10-19T04:00:33;15.63;;;14.02;;
3613;SDS011;1821;50.936;6.854;2023-10-19T04:01:16;16.58;;;14.98;;
3613;SDS011;1821;50.936;6.854;2023-10-19T04:02:00;16.52;;;14.82;;
3613;SDS011;1821;50.936;6.854;2023-10-19T04:02:48;18.15;;;15.15;;
3613;SDS011;1821;50.936;6.854;2023-10-19T04:03:35;17.10;;;15.30;;
3613;SDS011;1821;50.936;6.854;2023-10-19T04:04:17;16.35;;;14.85;;
3613;SDS011;1821;50.936;6.854;2023-10-19T04:05:01;16.67;;;14.68;;
3613;SDS011;1821;50.936;6.854;2023-10-19T04:05:44;17.92;;;14.80;;
3613;SDS011;1821;50.936;6.854;2023-10-19T04:06:28;16.92;;;14.48;;
3613;SDS011;1821;50.936;6.854;2023-10-19T04:07:10;18.17;;;15.35;;
3613;SDS011;1821;50.936;6.854;2023-10-19T04:08:05;15.75;;;14.15;;
3613;SDS011;1821;50.936;6.854;2023-10-19T04:08:54;17.88;;;15.00;;
3613;SDS011;1821;50.936;6.854;2023-10-19T04:09:36;16.30;;;14.32;;
3613;SDS011;1821;50.936;6.854;2023-10-19T04:10:38;16.02;;;14.32;;
3613;SDS011;1821;50.936;6.854;2023-10-19T04:11:27;17.92;;;13.82;;
3613;SDS011;1821;50.936;6.854;2023-10-19T04:12:14;14.85;;;13.35;;
3613;SDS011;1821;50.936;6.854;2023-10-19T04:12:58;14.70;;;13.20;;
3613;SDS011;1821;50.936;6.854;2023-10-19T04:13:42;16.33;;;14.63;;
3613;SDS011;1821;50.936;6.854;2023-10-19T04:14:24;17.40;;;14.68;;
3613;SDS011;1821;50.936;6.854;2023-10-19T04:15:06;16.90;;;13.60;;
3613;SDS011;1821;50.936;6.854;2023-10-19T04:15:58;16.42;;;14.23;;
3613;SDS011;1821;50.936;6.854;2023-10-19T04:16:40;14.80;;;13.20;;
3613;SDS011;1821;50.936;6.854;2023-10-19T04:17:25;15.90;;;13.40;;
3613;SDS011;1821;50.936;6.854;2023-10-19T04:18:09;15.48;;;13.88;;
3613;SDS011;1821;50.936;6.854;2023-10-19T04:18:51;16.27;;;14.05;;
3613;SDS011;1821;50.936;6.854;2023-10-19T04:19:35;16.27;;;13.52;;
3613;SDS011;1821;50.936;6.854;2023-10-19T04:20:18;16.17;;;13.52;;
3613;SDS011;1821;50.936;6.854;2023-10-19T04:21:00;15.60;;;12.90;;
3613;SDS011;1821;50.936;6.854;2023-10-19T04:21:44;16.10;;;14.43;;
3613;SDS011;1821;50.936;6.854;2023-10-19T04:22:27;15.63;;;13.90;;
3613;SDS011;1821;50.936;6.854;2023-10-19T04:23:12;15.70;;;14.00;;
3613;SDS011;1821;50.936;6.854;2023-10-19T04:23:57;14.60;;;13.10;;
3613;SDS011;1821;50.936;6.854;2023-10-19T04:24:40;13.77;;;12.38;;
3613;SDS011;1821;50.936;6.854;2023-10-19T04:25:22;13.70;;;12.07;;
3613;SDS011;1821;50.936;6.854;2023-10-19T04:26:07;14.63;;;12.70;;
3613;SDS011;1821;50.936;6.854;2023-10-19T04:26:52;16.42;;;13.95;;
3613;SDS011;1821;50.936;6.854;2023-10-19T04:27:36;16.23;;;13.20;;
3613;SDS011;1821;50.936;6.854;2023-10-19T04:28:17;15.25;;;13.60;;
3613;SDS011;1821;50.936;6.854;2023-10-19T04:29:11;15.70;;;14.00;;
3613;SDS011;1821;50.936;6.854;2023-10-19T04:29:54;17.05;;;13.75;;
3613;SDS011;1821;50.936;6.854;2023-10-19T04:30:37;16.13;;;13.68;;
3613;SDS011;1821;50.936;6.854;2023-10-19T04:31:19;15.85;;;14.25;;
3613;SDS011;1821;50.936;6.854;2023-10-19T04:32:05;15.20;;;13.70;;
3613;SDS011;1821;50.936;6.854;2023-10-19T04:32:48;15.10;;;13.50;;
3613;SDS011;1821;50.936;6.854;2023-10-19T04:33:32;16.20;;;14.07;;
3613;SDS011;1821;50.936;6.854;2023-10-19T04:34:17;15.20;;;12.95;;